createdAt,value
2023-05-05T00:01:31.157Z,1.98
2023-05-05T00:03:58.304Z,1.90
2023-05-05T00:06:25.540Z,1.60
2023-05-05T00:08:52.587Z,2.22
2023-05-05T00:11:19.650Z,1.83
2023-05-05T00:13:47.126Z,2.05
2023-05-05T00:16:14.640Z,2.20
2023-05-05T00:18:41.851Z,1.90
2023-05-05T00:21:08.964Z,2.10
2023-05-05T00:23:36.112Z,1.90
2023-05-05T00:26:03.287Z,2.20
2023-05-05T00:28:30.750Z,2.17
2023-05-05T00:30:58.454Z,2.10
2023-05-05T00:33:26.019Z,2.35
2023-05-05T00:35:53.263Z,2.17
2023-05-05T00:38:20.756Z,1.90
2023-05-05T00:40:48.042Z,2.10
2023-05-05T00:43:15.256Z,1.90
2023-05-05T00:45:44.750Z,2.03
2023-05-05T00:48:12.132Z,2.05
2023-05-05T00:50:39.873Z,2.30
2023-05-05T00:53:07.468Z,2.13
2023-05-05T00:55:35.355Z,2.30
2023-05-05T00:58:04.222Z,2.17
2023-05-05T01:00:32.122Z,2.28
2023-05-05T01:02:59.826Z,2.20
2023-05-05T01:05:52.905Z,2.28
2023-05-05T01:08:42.736Z,2.15
2023-05-05T01:11:31.215Z,2.73
2023-05-05T01:14:12.625Z,2.47
2023-05-05T01:16:46.493Z,2.60
2023-05-05T01:19:35.150Z,2.30
2023-05-05T01:22:04.038Z,2.30
2023-05-05T01:24:56.558Z,2.50
2023-05-05T01:27:45.477Z,2.47
2023-05-05T01:30:56.251Z,2.45
2023-05-05T01:33:32.233Z,2.60
2023-05-05T01:36:07.174Z,2.42
2023-05-05T01:38:42.501Z,2.20
2023-05-05T01:41:17.355Z,2.35
2023-05-05T01:43:49.961Z,2.20
2023-05-05T01:46:19.627Z,2.38
2023-05-05T01:48:49.146Z,2.50
2023-05-05T01:51:19.381Z,2.40
2023-05-05T01:53:47.387Z,2.60
2023-05-05T01:56:16.496Z,2.38
2023-05-05T01:58:45.976Z,2.50
2023-05-05T02:01:15.264Z,2.50
2023-05-05T02:03:44.709Z,2.58
2023-05-05T02:06:13.946Z,2.58
2023-05-05T02:08:42.130Z,2.58
2023-05-05T02:11:11.654Z,2.78
2023-05-05T02:13:42.648Z,2.33
2023-05-05T02:16:17.025Z,2.60
2023-05-05T02:18:47.325Z,2.40
2023-05-05T02:21:18.201Z,2.42
2023-05-05T02:23:47.369Z,2.38
2023-05-05T02:26:17.189Z,2.90
2023-05-05T02:29:07.420Z,1.70
2023-05-05T02:31:44.454Z,2.55
2023-05-05T02:34:16.564Z,2.33
2023-05-05T02:36:44.984Z,2.40
2023-05-05T02:39:29.234Z,2.67
2023-05-05T02:41:59.416Z,2.90
2023-05-05T02:44:29.163Z,2.00
2023-05-05T02:46:57.727Z,1.95
2023-05-05T02:49:25.218Z,2.28
2023-05-05T02:51:58.157Z,2.45
2023-05-05T02:54:28.880Z,1.70
2023-05-05T02:56:57.930Z,1.88
2023-05-05T02:59:41.085Z,2.22
2023-05-05T03:02:31.553Z,0.88
2023-05-05T03:05:11.292Z,1.75
2023-05-05T03:07:56.754Z,1.27
2023-05-05T03:10:40.138Z,1.90
2023-05-05T03:13:11.577Z,2.15
2023-05-05T03:15:46.908Z,1.98
2023-05-05T03:18:18.302Z,2.08
2023-05-05T03:20:52.035Z,2.22
2023-05-05T03:23:21.173Z,1.80
2023-05-05T03:25:51.644Z,1.55
2023-05-05T03:28:29.377Z,1.80
2023-05-05T03:30:59.330Z,2.15
2023-05-05T03:33:26.508Z,2.15
2023-05-05T03:35:58.036Z,2.83
2023-05-05T03:38:25.135Z,2.45
2023-05-05T03:40:52.332Z,2.35
2023-05-05T03:43:22.096Z,2.60
2023-05-05T03:45:50.654Z,2.90
2023-05-05T03:48:18.526Z,2.85
2023-05-05T03:50:46.350Z,1.67
2023-05-05T03:53:14.625Z,3.00
2023-05-05T03:55:42.557Z,3.63
2023-05-05T03:58:11.254Z,2.20
2023-05-05T04:00:38.392Z,2.92
2023-05-05T04:03:06.048Z,2.63
2023-05-05T04:05:33.099Z,2.00
2023-05-05T04:08:00.347Z,0.90
2023-05-05T04:10:27.495Z,1.92
2023-05-05T04:12:54.639Z,1.95
2023-05-05T04:15:22.106Z,1.63
2023-05-05T04:17:49.680Z,1.83
2023-05-05T04:20:17.057Z,1.95
2023-05-05T04:22:44.231Z,2.03
2023-05-05T04:25:11.254Z,0.63
2023-05-05T04:27:38.411Z,0.82
2023-05-05T04:30:07.034Z,0.80
2023-05-05T04:32:35.984Z,1.65
2023-05-05T04:35:03.009Z,1.70
2023-05-05T04:37:30.398Z,1.65
2023-05-05T04:39:58.790Z,1.15
2023-05-05T04:42:26.143Z,1.67
2023-05-05T04:44:53.254Z,1.10
2023-05-05T04:47:20.251Z,2.10
2023-05-05T04:49:47.230Z,1.58
2023-05-05T04:52:14.359Z,1.35
2023-05-05T04:54:41.531Z,1.65
2023-05-05T04:57:08.587Z,1.27
2023-05-05T04:59:36.693Z,2.10
2023-05-05T05:02:03.768Z,1.25
2023-05-05T05:04:30.772Z,1.27
2023-05-05T05:06:59.353Z,1.13
2023-05-05T05:09:27.149Z,1.20
2023-05-05T05:11:54.148Z,0.60
2023-05-05T05:14:21.893Z,0.90
2023-05-05T05:16:52.381Z,1.33
2023-05-05T05:19:21.913Z,1.20
2023-05-05T05:21:49.164Z,0.82
2023-05-05T05:24:16.424Z,1.05
2023-05-05T05:26:44.136Z,0.93
2023-05-05T05:29:11.201Z,1.35
2023-05-05T05:31:39.859Z,1.98
2023-05-05T05:34:07.290Z,0.63
2023-05-05T05:36:35.159Z,0.52
2023-05-05T05:39:03.855Z,1.13
2023-05-05T05:41:30.923Z,1.65
2023-05-05T05:43:57.993Z,1.75
2023-05-05T05:46:25.392Z,1.50
2023-05-05T05:48:52.973Z,1.23
2023-05-05T05:51:20.448Z,1.42
2023-05-05T05:53:48.879Z,1.85
2023-05-05T05:56:15.876Z,1.60
2023-05-05T05:58:43.480Z,1.73
2023-05-05T06:01:10.986Z,1.30
2023-05-05T06:03:38.251Z,1.25
2023-05-05T06:06:07.642Z,1.17
2023-05-05T06:08:34.940Z,1.25
2023-05-05T06:11:02.006Z,1.38
2023-05-05T06:13:29.788Z,1.33
2023-05-05T06:15:56.893Z,1.25
2023-05-05T06:18:24.121Z,0.80
2023-05-05T06:20:52.515Z,0.88
2023-05-05T06:23:22.355Z,1.58
2023-05-05T06:25:55.766Z,0.60
2023-05-05T06:28:22.889Z,1.20
2023-05-05T06:30:49.896Z,0.68
2023-05-05T06:33:16.929Z,1.48
2023-05-05T06:35:43.935Z,1.35
2023-05-05T06:38:11.164Z,1.92
2023-05-05T06:40:38.160Z,1.60
2023-05-05T06:43:05.428Z,1.48
2023-05-05T06:45:37.088Z,1.80
2023-05-05T06:48:04.168Z,1.65
2023-05-05T06:50:31.160Z,1.40
2023-05-05T06:52:58.130Z,1.20
2023-05-05T06:55:25.495Z,1.52
2023-05-05T06:57:52.630Z,1.55
2023-05-05T07:00:20.064Z,1.48
2023-05-05T07:02:47.717Z,1.60
2023-05-05T07:05:14.764Z,1.27
2023-05-05T07:07:52.624Z,1.65
2023-05-05T07:10:19.982Z,1.23
2023-05-05T07:12:47.120Z,0.80
2023-05-05T07:15:26.765Z,1.15
2023-05-05T07:17:55.711Z,1.10
2023-05-05T07:20:22.753Z,1.80
2023-05-05T07:22:49.743Z,2.10
2023-05-05T07:25:16.901Z,1.83
2023-05-05T07:27:44.054Z,1.00
2023-05-05T07:30:15.297Z,1.90
2023-05-05T07:32:44.688Z,0.80
2023-05-05T07:35:11.880Z,0.90
2023-05-05T07:37:38.846Z,1.30
2023-05-05T07:40:06.744Z,1.38
2023-05-05T07:42:34.025Z,1.65
2023-05-05T07:45:01.006Z,1.52
2023-05-05T07:47:28.048Z,2.13
2023-05-05T07:49:55.153Z,2.00
2023-05-05T07:52:33.235Z,0.65
2023-05-05T07:55:09.316Z,1.75
2023-05-05T07:57:36.391Z,1.42
2023-05-05T08:00:03.796Z,1.40
2023-05-05T08:02:39.379Z,1.92
2023-05-05T08:05:07.277Z,0.80
2023-05-05T08:07:36.618Z,2.05
2023-05-05T08:10:03.828Z,1.80
2023-05-05T08:12:30.869Z,1.55
2023-05-05T08:14:57.820Z,1.15
2023-05-05T08:17:27.125Z,1.42
2023-05-05T08:19:54.214Z,1.13
2023-05-05T08:22:24.050Z,1.00
2023-05-05T08:24:51.059Z,1.50
2023-05-05T08:27:18.083Z,1.02
2023-05-05T08:29:45.100Z,1.10
2023-05-05T08:32:12.210Z,1.70
2023-05-05T08:34:39.376Z,1.67
2023-05-05T08:37:06.507Z,1.98
2023-05-05T08:39:33.552Z,1.58
2023-05-05T08:42:00.712Z,0.85
2023-05-05T08:44:29.004Z,1.27
2023-05-05T08:46:56.833Z,1.10
2023-05-05T08:49:25.528Z,2.10
2023-05-05T08:51:54.251Z,0.98
2023-05-05T08:54:27.410Z,1.65
2023-05-05T08:56:57.069Z,2.28
2023-05-05T08:59:25.298Z,1.27
2023-05-05T09:02:12.744Z,1.30
2023-05-05T09:04:40.076Z,1.42
2023-05-05T09:07:07.475Z,1.80
2023-05-05T09:09:34.636Z,3.33
2023-05-05T09:12:03.131Z,0.90
2023-05-05T09:14:30.195Z,2.75
2023-05-05T09:16:57.456Z,1.88
2023-05-05T09:19:24.607Z,1.98
2023-05-05T09:21:52.101Z,1.70
2023-05-05T09:24:19.326Z,1.70
2023-05-05T09:26:47.676Z,2.15
2023-05-05T09:29:19.280Z,2.15
2023-05-05T09:32:05.499Z,2.05
2023-05-05T09:34:36.311Z,1.55
2023-05-05T09:37:04.280Z,0.85
2023-05-05T09:39:31.516Z,2.35
2023-05-05T09:41:58.862Z,2.33
2023-05-05T09:44:37.010Z,1.52
2023-05-05T09:47:09.557Z,2.38
2023-05-05T09:49:39.527Z,1.80
2023-05-05T09:52:16.781Z,4.05
2023-05-05T09:54:44.373Z,2.50
2023-05-05T09:57:28.862Z,1.80
2023-05-05T10:00:04.334Z,2.20
2023-05-05T10:02:38.426Z,2.75
2023-05-05T10:05:08.089Z,2.50
2023-05-05T10:07:36.227Z,2.42
2023-05-05T10:10:09.436Z,0.95
2023-05-05T10:12:37.942Z,2.20
2023-05-05T10:15:07.364Z,2.45
2023-05-05T10:17:54.313Z,2.78
2023-05-05T10:20:33.626Z,2.97
2023-05-05T10:23:05.727Z,2.15
2023-05-05T10:25:46.616Z,1.42
2023-05-05T10:28:22.330Z,1.80
2023-05-05T10:30:53.005Z,0.98
2023-05-05T10:33:34.244Z,1.52
2023-05-05T10:36:05.352Z,1.42
2023-05-05T10:38:34.269Z,2.08
2023-05-05T10:41:05.016Z,1.90
2023-05-05T10:43:32.779Z,2.30
2023-05-05T10:46:00.845Z,1.50
2023-05-05T10:48:57.828Z,2.50
2023-05-05T10:51:39.844Z,1.48
2023-05-05T10:54:37.164Z,1.73
2023-05-05T10:57:09.898Z,2.25
2023-05-05T10:59:37.215Z,1.42
2023-05-05T11:02:28.388Z,1.38
2023-05-05T11:05:17.701Z,2.00
2023-05-05T11:07:46.604Z,2.13
2023-05-05T11:10:15.978Z,2.33
2023-05-05T11:12:52.444Z,1.95
2023-05-05T11:15:31.826Z,2.40
2023-05-05T11:18:03.132Z,2.13
2023-05-05T11:20:39.880Z,2.08
2023-05-05T11:23:07.618Z,2.70
2023-05-05T11:25:39.254Z,1.65
2023-05-05T11:28:14.413Z,1.85
2023-05-05T11:30:57.559Z,2.40
2023-05-05T11:33:38.300Z,1.88
2023-05-05T11:36:13.334Z,2.20
2023-05-05T11:39:31.636Z,1.98
2023-05-05T11:42:20.497Z,1.83
2023-05-05T11:44:47.772Z,1.40
2023-05-05T11:47:14.783Z,1.98
2023-05-05T11:49:41.875Z,1.00
2023-05-05T11:52:12.479Z,0.90
2023-05-05T11:54:48.202Z,2.10
2023-05-05T11:57:21.807Z,2.15
2023-05-05T11:59:54.980Z,0.85
2023-05-05T12:02:22.827Z,1.58
2023-05-05T12:04:51.235Z,1.65
2023-05-05T12:07:19.698Z,1.13
2023-05-05T12:09:47.978Z,1.20
2023-05-05T12:12:15.817Z,0.70
2023-05-05T12:14:54.354Z,1.42
2023-05-05T12:17:23.013Z,2.17
2023-05-05T12:19:54.815Z,1.25
2023-05-05T12:22:24.442Z,1.90
2023-05-05T12:24:59.073Z,0.98
2023-05-05T12:27:27.603Z,2.30
2023-05-05T12:29:56.581Z,1.15
2023-05-05T12:32:30.493Z,1.20
2023-05-05T12:34:57.751Z,1.50
2023-05-05T12:37:26.935Z,3.20
2023-05-05T12:39:55.169Z,2.22
2023-05-05T12:42:22.775Z,2.40
2023-05-05T12:44:50.128Z,2.83
2023-05-05T12:47:33.591Z,2.22
2023-05-05T12:50:03.019Z,2.05
2023-05-05T12:52:45.326Z,1.13
2023-05-05T12:55:13.265Z,1.95
2023-05-05T12:58:00.921Z,1.33
2023-05-05T13:00:29.283Z,1.33
2023-05-05T13:02:57.073Z,1.35
2023-05-05T13:05:34.009Z,1.08
2023-05-05T13:08:01.119Z,1.20
2023-05-05T13:10:28.529Z,1.00
2023-05-05T13:12:56.951Z,0.90
2023-05-05T13:15:25.198Z,1.65
2023-05-05T13:18:00.325Z,1.13
2023-05-05T13:20:27.666Z,1.48
2023-05-05T13:22:54.817Z,2.08
2023-05-05T13:25:21.912Z,1.77
2023-05-05T13:27:49.158Z,1.73
2023-05-05T13:30:16.273Z,1.80
2023-05-05T13:32:43.526Z,1.50
2023-05-05T13:35:12.145Z,1.75
2023-05-05T13:37:41.603Z,1.90
2023-05-05T13:40:09.477Z,1.67
2023-05-05T13:42:36.580Z,1.60
2023-05-05T13:45:03.970Z,2.20
2023-05-05T13:47:32.227Z,1.90
2023-05-05T13:49:59.598Z,2.00
2023-05-05T13:52:27.733Z,1.95
2023-05-05T13:54:55.762Z,1.58
2023-05-05T13:57:23.366Z,1.38
2023-05-05T13:59:50.733Z,1.45
2023-05-05T14:02:17.788Z,1.95
2023-05-05T14:04:45.014Z,1.67
2023-05-05T14:07:12.074Z,1.00
2023-05-05T14:09:39.183Z,1.90
2023-05-05T14:12:06.402Z,1.35
2023-05-05T14:14:34.500Z,1.88
2023-05-05T14:17:01.675Z,1.90
2023-05-05T14:19:29.154Z,1.80
2023-05-05T14:21:56.323Z,1.20
2023-05-05T14:24:23.429Z,1.05
2023-05-05T14:26:50.555Z,1.70
2023-05-05T14:29:17.677Z,2.00
2023-05-05T14:31:44.761Z,2.20
2023-05-05T14:34:11.864Z,1.90
2023-05-05T14:36:39.023Z,1.75
2023-05-05T14:39:06.127Z,2.15
2023-05-05T14:41:33.241Z,1.83
2023-05-05T14:44:00.461Z,1.70
2023-05-05T14:46:27.752Z,0.90
2023-05-05T14:48:55.059Z,1.25
2023-05-05T14:51:22.331Z,1.83
2023-05-05T14:53:49.974Z,1.90
2023-05-05T14:56:17.471Z,1.20
2023-05-05T14:58:44.585Z,2.13
2023-05-05T15:01:11.753Z,2.72
2023-05-05T15:03:38.900Z,1.50
2023-05-05T15:06:07.379Z,1.63
2023-05-05T15:08:34.723Z,1.30
2023-05-05T15:11:01.920Z,1.33
2023-05-05T15:13:29.824Z,1.38
2023-05-05T15:15:57.220Z,0.88
2023-05-05T15:18:24.375Z,1.20
2023-05-05T15:20:51.456Z,1.70
2023-05-05T15:23:18.530Z,2.00
2023-05-05T15:25:45.797Z,2.10
2023-05-05T15:28:12.926Z,1.45
2023-05-05T15:30:40.129Z,1.15
2023-05-05T15:33:07.354Z,0.93
2023-05-05T15:35:34.601Z,0.95
2023-05-05T15:38:01.863Z,2.00
2023-05-05T15:40:29.158Z,1.30
2023-05-05T15:42:56.244Z,1.70
2023-05-05T15:45:23.733Z,2.10
2023-05-05T15:47:51.143Z,1.40
2023-05-05T15:50:18.568Z,1.80
2023-05-05T15:52:47.180Z,1.77
2023-05-05T15:55:16.116Z,1.75
2023-05-05T15:57:43.228Z,2.30
2023-05-05T16:00:10.836Z,1.80
2023-05-05T16:02:38.143Z,1.30
2023-05-05T16:05:06.001Z,1.85
2023-05-05T16:07:33.276Z,2.00
2023-05-05T16:10:00.436Z,1.23
2023-05-05T16:12:27.531Z,1.27
2023-05-05T16:14:54.662Z,1.50
2023-05-05T16:17:22.758Z,1.65
2023-05-05T16:19:50.161Z,1.70
2023-05-05T16:22:17.490Z,1.75
2023-05-05T16:24:44.571Z,1.60
2023-05-05T16:27:11.656Z,1.60
2023-05-05T16:29:38.931Z,1.77
2023-05-05T16:32:06.433Z,1.77
2023-05-05T16:34:33.812Z,1.73
2023-05-05T16:37:01.359Z,2.42
2023-05-05T16:39:28.523Z,1.90
2023-05-05T16:41:55.826Z,1.40
2023-05-05T16:44:22.915Z,2.13
2023-05-05T16:46:50.019Z,1.60
2023-05-05T16:49:17.234Z,1.80
2023-05-05T16:51:44.470Z,1.60
2023-05-05T16:54:11.640Z,1.98
2023-05-05T16:56:38.711Z,1.83
2023-05-05T16:59:06.361Z,1.33
2023-05-05T17:01:34.962Z,1.90
2023-05-05T17:04:02.667Z,1.70
2023-05-05T17:06:33.298Z,2.00
2023-05-05T17:09:00.670Z,1.65
2023-05-05T17:11:27.842Z,2.38
2023-05-05T17:13:55.013Z,2.40
2023-05-05T17:16:22.249Z,1.75
2023-05-05T17:18:49.513Z,2.05
2023-05-05T17:21:16.704Z,1.95
2023-05-05T17:23:43.858Z,1.67
2023-05-05T17:26:10.989Z,2.05
2023-05-05T17:28:38.282Z,2.30
2023-05-05T17:31:05.840Z,2.50
2023-05-05T17:33:32.996Z,2.22
2023-05-05T17:36:00.168Z,2.20
2023-05-05T17:38:27.260Z,2.25
2023-05-05T17:40:54.349Z,2.35
2023-05-05T17:43:21.494Z,2.28
2023-05-05T17:45:48.689Z,2.17
2023-05-05T17:48:15.949Z,2.40
2023-05-05T17:50:43.624Z,3.20
2023-05-05T17:53:11.260Z,3.65
2023-05-05T17:55:38.457Z,2.80
2023-05-05T17:58:05.580Z,3.00
2023-05-05T18:00:32.689Z,3.08
2023-05-05T18:03:01.163Z,2.97
2023-05-05T18:05:28.630Z,2.90
2023-05-05T18:07:55.816Z,2.75
2023-05-05T18:10:23.432Z,3.10
2023-05-05T18:12:50.802Z,2.88
2023-05-05T18:15:17.914Z,3.00
2023-05-05T18:17:45.124Z,2.55
2023-05-05T18:20:12.360Z,3.17
2023-05-05T18:22:39.484Z,2.95
2023-05-05T18:25:08.270Z,2.60
2023-05-05T18:27:36.140Z,2.50
2023-05-05T18:30:04.913Z,2.60
2023-05-05T18:32:34.034Z,3.03
2023-05-05T18:35:01.376Z,2.85
2023-05-05T18:37:28.611Z,3.50
2023-05-05T18:39:55.788Z,3.15
2023-05-05T18:42:23.256Z,3.03
2023-05-05T18:44:50.467Z,2.97
2023-05-05T18:47:17.561Z,3.00
2023-05-05T18:49:45.564Z,2.60
2023-05-05T18:52:13.649Z,3.05
2023-05-05T18:54:41.192Z,2.92
2023-05-05T18:57:08.295Z,2.92
2023-05-05T18:59:35.443Z,3.10
2023-05-05T19:02:02.990Z,2.90
2023-05-05T19:04:31.734Z,2.70
2023-05-05T19:07:00.171Z,3.10
2023-05-05T19:09:27.842Z,2.78
2023-05-05T19:11:55.119Z,4.40
2023-05-05T19:14:22.957Z,2.53
2023-05-05T19:16:50.106Z,3.20
2023-05-05T19:19:17.234Z,3.10
2023-05-05T19:21:44.448Z,3.30
2023-05-05T19:24:11.833Z,3.30
2023-05-05T19:26:38.951Z,2.97
2023-05-05T19:29:06.202Z,2.67
2023-05-05T19:31:33.393Z,4.15
2023-05-05T19:34:02.866Z,5.93
2023-05-05T19:36:31.871Z,4.35
2023-05-05T19:39:01.878Z,3.70
2023-05-05T19:41:30.938Z,4.67
2023-05-05T19:43:58.502Z,5.18
2023-05-05T19:46:26.716Z,4.03
2023-05-05T19:48:54.256Z,4.55
2023-05-05T19:51:21.681Z,4.18
2023-05-05T19:53:48.856Z,4.07
2023-05-05T19:56:17.105Z,3.45
2023-05-05T19:58:57.894Z,2.10
2023-05-05T20:01:25.746Z,2.03
2023-05-05T20:03:55.529Z,2.83
2023-05-05T20:06:23.052Z,2.42
2023-05-05T20:08:50.357Z,1.90
2023-05-05T20:11:17.613Z,1.70
2023-05-05T20:13:44.835Z,1.85
2023-05-05T20:16:12.364Z,2.30
2023-05-05T20:18:40.394Z,2.03
2023-05-05T20:21:07.662Z,2.05
2023-05-05T20:23:34.959Z,1.83
2023-05-05T20:26:02.209Z,1.60
2023-05-05T20:28:31.684Z,1.58
2023-05-05T20:31:00.736Z,1.73
2023-05-05T20:33:28.989Z,1.80
2023-05-05T20:35:56.248Z,1.80
2023-05-05T20:38:24.143Z,1.90
2023-05-05T20:40:52.333Z,2.00
2023-05-05T20:43:19.546Z,1.67
2023-05-05T20:45:46.741Z,2.10
2023-05-05T20:48:13.889Z,2.25
2023-05-05T20:50:41.838Z,2.00
2023-05-05T20:53:10.904Z,2.00
2023-05-05T20:55:38.026Z,2.38
2023-05-05T20:58:07.519Z,2.22
2023-05-05T21:00:34.881Z,1.98
2023-05-05T21:03:05.124Z,1.73
2023-05-05T21:05:32.507Z,1.38
2023-05-05T21:08:01.033Z,2.10
2023-05-05T21:10:33.205Z,2.25
2023-05-05T21:13:02.637Z,1.75
2023-05-05T21:15:30.437Z,1.63
2023-05-05T21:17:57.749Z,1.70
2023-05-05T21:20:24.924Z,1.02
2023-05-05T21:22:52.063Z,1.60
2023-05-05T21:25:21.165Z,1.40
2023-05-05T21:27:49.176Z,1.77
2023-05-05T21:30:17.303Z,1.65
2023-05-05T21:32:44.882Z,1.45
2023-05-05T21:35:12.302Z,1.45
2023-05-05T21:37:40.181Z,0.60
2023-05-05T21:40:14.164Z,1.35
2023-05-05T21:42:43.201Z,1.55
2023-05-05T21:45:11.396Z,1.50
2023-05-05T21:47:38.544Z,0.70
2023-05-05T21:50:06.610Z,1.40
2023-05-05T21:52:34.197Z,1.25
2023-05-05T21:55:01.476Z,1.40
2023-05-05T21:57:31.903Z,1.05
2023-05-05T21:59:58.989Z,1.15
2023-05-05T22:02:26.237Z,1.42
2023-05-05T22:04:53.553Z,1.40
2023-05-05T22:07:20.815Z,1.70
2023-05-05T22:09:47.987Z,1.10
2023-05-05T22:12:15.213Z,1.30
2023-05-05T22:14:42.240Z,0.55
2023-05-05T22:17:09.298Z,1.50
2023-05-05T22:19:36.432Z,0.85
2023-05-05T22:22:03.703Z,1.25
2023-05-05T22:24:30.938Z,1.35
2023-05-05T22:26:58.370Z,0.85
2023-05-05T22:29:25.642Z,0.95
2023-05-05T22:31:53.233Z,1.40
2023-05-05T22:34:21.962Z,1.17
2023-05-05T22:36:49.932Z,1.20
2023-05-05T22:39:18.762Z,1.10
2023-05-05T22:41:46.992Z,1.20
2023-05-05T22:44:14.108Z,1.10
2023-05-05T22:46:41.367Z,1.35
2023-05-05T22:49:08.853Z,1.48
2023-05-05T22:51:36.011Z,1.60
2023-05-05T22:54:03.408Z,1.50
2023-05-05T22:56:30.595Z,1.67
2023-05-05T22:58:57.745Z,0.70
2023-05-05T23:01:24.913Z,1.58
2023-05-05T23:03:52.060Z,1.35
2023-05-05T23:06:19.103Z,0.40
2023-05-05T23:08:46.398Z,1.40
2023-05-05T23:11:13.459Z,1.42
2023-05-05T23:13:40.793Z,1.10
2023-05-05T23:16:08.036Z,1.25
2023-05-05T23:18:36.144Z,1.27
2023-05-05T23:21:03.246Z,1.20
2023-05-05T23:23:31.174Z,0.45
2023-05-05T23:25:58.518Z,0.63
2023-05-05T23:28:25.744Z,1.15
2023-05-05T23:30:53.060Z,1.05
2023-05-05T23:33:20.303Z,0.55
2023-05-05T23:35:47.950Z,1.10
2023-05-05T23:38:15.034Z,1.05
2023-05-05T23:40:42.132Z,0.90
2023-05-05T23:43:09.267Z,0.60
2023-05-05T23:45:36.344Z,1.30
2023-05-05T23:48:03.691Z,0.82
2023-05-05T23:50:31.021Z,1.40
2023-05-05T23:52:58.090Z,1.17
2023-05-05T23:55:25.363Z,1.10
2023-05-05T23:57:53.225Z,1.02
